Weather at Osmaniye Provincial Hospital Helipad

Public forecast

Using degrees Celsius for public forecast. Weather courtesy of forecast.io.

Closest aviation weather report (METAR) to Osmaniye Provincial Hospital Helipad

Closest report is İncirlik Air Base, 36.4 nm (67.5 km) W.

2024/05/30 23:20 (retrieved 11 minutes ago)

LTAG 302320Z 10002KT 9999 FEW035 19/17 Q1012 NOSIG

Closest aviation forecast (TAF) to Osmaniye Provincial Hospital Helipad

Closest forecast is İncirlik Air Base, 36.4 nm (67.5 km) W.

2024/05/30 18:03 (retrieved 5 hours ago)

TAF LTAG 301640Z 3018/3118 VRB02KT 9999 SCT035 PROB40 TEMPO 3107/3111 -TSRA SCT025CB BKN030 BECMG 3109/3112 18012KT BECMG 3116/3118 VRB02KT